#dbistima — V2PX5 — position and weather

sailwx.info

Track history (hours):
 
Tides and Currents Weather Stations Pressure Air Temp Water Temp Dewpoint Dewpoint Depression Visibility Wind Speed Wind Dir Waves Ship Positions

#dbistima

Last reported at 2016-Feb-06 23:33 UTC. Time now 2016-Feb-10 00:46 UTC.
Position N 54°08' W 005°12'.

MMSI: 304010972.

Date/timePositionNaut miles runAvg speedWind from/ knotsBaromVisibWave heightAir tempDewpointWater temp
2016-Feb-06 23:33N 54°08' W 005°12'7 6.6
2016-Feb-06 22:33N 54°13' W 005°19'5 5.3
2016-Feb-06 21:33N 54°18' W 005°22'6 5.6
2016-Feb-06 20:33N 54°23' W 005°20'6 6.0
2016-Feb-06 19:33N 54°29' W 005°20'8 8.0
2016-Feb-06 18:33N 54°37' W 005°25'9 9.0
2016-Feb-06 17:33N 54°43' W 005°36'9 9.1
2016-Feb-06 16:33N 54°40' W 005°51'3 0.1
2016-Feb-05 19:29N 54°37' W 005°54'0 0.1
2016-Feb-05 18:32N 54°37' W 005°54'0 0.0
2016-Feb-04 09:32N 54°37' W 005°54'0 0.0
2016-Feb-04 06:20N 54°37' W 005°54'0 0.0
2016-Feb-04 05:23N 54°37' W 005°54'1 1.6
2016-Feb-04 04:32N 54°38' W 005°52'6 6.6
2016-Feb-04 03:34N 54°42' W 005°44'1 1.0
2016-Feb-04 02:14N 54°41' W 005°42'0 0.0
2016-Feb-04 01:32N 54°41' W 005°42'0 0.0
2016-Feb-04 00:26N 54°41' W 005°42'0 0.0
2016-Feb-03 23:32N 54°41' W 005°42'0 0.0
2016-Feb-03 22:32N 54°41' W 005°42'0 0.0
2016-Feb-03 20:26N 54°41' W 005°42'0 0.0
2016-Feb-03 19:29N 54°41' W 005°42'0 0.0
2016-Feb-03 18:32N 54°41' W 005°42'0 0.0
2016-Feb-03 17:32N 54°41' W 005°42'0 0.5
2016-Feb-03 16:32N 54°41' W 005°41'7 6.7
2016-Feb-03 15:33N 54°44' W 005°31'8 8.3
2016-Feb-03 14:33N 54°37' W 005°23'9 9.3
2016-Feb-03 13:33N 54°27' W 005°19'10 9.9
2016-Feb-03 12:34N 54°18' W 005°22'1010.0
2016-Feb-03 11:33N 54°08' W 005°25'  
2016-Jan-30 15:33N 50°34' E 000°06'8 7.7
2016-Jan-30 14:33N 50°36' E 000°18'6 6.4
2016-Jan-30 13:33N 50°37' E 000°27'6 6.1
2016-Jan-30 12:33N 50°40' E 000°36'7 6.7
2016-Jan-30 11:33N 50°43' E 000°45'16 7.9
2016-Jan-30 09:33N 50°53' E 001°05'8 8.4
2016-Jan-30 08:33N 50°58' E 001°15'7 7.2
2016-Jan-30 07:33N 51°03' E 001°24'5 5.4
2016-Jan-30 06:33N 51°06' E 001°31'3 3.1
2016-Jan-30 05:33N 51°08' E 001°34'2 1.6
2016-Jan-30 04:33N 51°09' E 001°36'2 1.6
2016-Jan-30 03:33N 51°10' E 001°38'2 2.0
2016-Jan-30 02:34N 51°12' E 001°41'3 2.9
2016-Jan-30 01:33N 51°13' E 001°44'5 5.3
2016-Jan-30 00:33N 51°18' E 001°47'7 7.0
2016-Jan-29 23:34N 51°25' E 001°49'8 8.2
2016-Jan-29 22:33N 51°33' E 001°47'9 9.0
2016-Jan-29 21:33N 51°42' E 001°45'8 8.3
2016-Jan-29 20:33N 51°50' E 001°40'8 8.0
2016-Jan-29 19:33N 51°56' E 001°32'9 8.6
2016-Jan-29 18:33N 51°57' E 001°18'7 6.9
2016-Jan-29 17:33N 52°02' E 001°10'1 0.6
2016-Jan-29 16:32N 52°02' E 001°10'0 0.0
2016-Jan-29 15:32N 52°02' E 001°10'0 0.0
2016-Jan-29 14:32N 52°02' E 001°10'0 0.0
2016-Jan-29 13:14N 52°02' E 001°10'0 0.0
2016-Jan-29 11:23N 52°02' E 001°10'0 0.0
2016-Jan-29 10:26N 52°02' E 001°10'0 0.0
2016-Jan-29 09:32N 52°02' E 001°10'0 0.0
2016-Jan-29 08:23N 52°02' E 001°10'0 0.0
2016-Jan-29 07:32N 52°02' E 001°10'0 0.0
2016-Jan-29 06:32N 52°02' E 001°10'0 0.0
2016-Jan-29 05:32N 52°02' E 001°10'0 0.0
2016-Jan-29 04:29N 52°02' E 001°10'0 0.0
2016-Jan-29 03:32N 52°02' E 001°10'0 0.0
2016-Jan-29 02:29N 52°02' E 001°10'0 0.0
2016-Jan-29 01:32N 52°02' E 001°10'0 0.0
2016-Jan-29 00:26N 52°02' E 001°10'0 0.1
2016-Jan-28 23:32N 52°03' E 001°10'0 0.0
2016-Jan-28 22:26N 52°03' E 001°10'0 0.0
2016-Jan-28 21:32N 52°03' E 001°10'0 0.0
2016-Jan-28 18:14N 52°03' E 001°10'0 0.0
2016-Jan-28 17:23N 52°03' E 001°10'0 0.0
2016-Jan-28 14:20N 52°03' E 001°10'0 0.0
2016-Jan-28 13:34N 52°03' E 001°10'4 4.2
2016-Jan-28 12:33N 51°60' E 001°15'7 7.0
2016-Jan-28 11:33N 51°56' E 001°25'9 8.5
2016-Jan-28 10:33N 52°01' E 001°36'9 8.8
2016-Jan-28 09:33N 52°09' E 001°41'1211.5
2016-Jan-28 08:33N 52°20' E 001°46'1110.6
2016-Jan-28 07:33N 52°30' E 001°51'9 9.1
2016-Jan-28 06:33N 52°39' E 001°55'8 8.3
2016-Jan-28 05:33N 52°47' E 001°49'8 8.4
2016-Jan-28 04:34N 52°53' E 001°41'8 8.2
2016-Jan-28 03:33N 52°59' E 001°31'9 9.2
2016-Jan-28 02:33N 53°06' E 001°21'11 9.8
2016-Jan-28 01:29N 53°14' E 001°09'1010.2
2016-Jan-28 00:32N 53°21' E 000°58'  
Track history (hours):
 
Tides and Currents Weather Stations Pressure Air Temp Water Temp Dewpoint Dewpoint Depression Visibility Wind Speed Wind Dir Waves Ship Positions

#dbistima

Last reported at 2016-Feb-06 23:33 UTC. Time now 2016-Feb-10 00:46 UTC.
Position N 54°08' W 005°12'.

MMSI: 304010972.

Date/timePositionNaut miles runAvg speedWind from/ knotsBaromVisibWave heightAir tempDewpointWater temp
2016-Feb-06 23:33N 54°08' W 005°12'7 6.6
2016-Feb-06 22:33N 54°13' W 005°19'5 5.3
2016-Feb-06 21:33N 54°18' W 005°22'6 5.6
2016-Feb-06 20:33N 54°23' W 005°20'6 6.0
2016-Feb-06 19:33N 54°29' W 005°20'8 8.0
2016-Feb-06 18:33N 54°37' W 005°25'9 9.0
2016-Feb-06 17:33N 54°43' W 005°36'9 9.1
2016-Feb-06 16:33N 54°40' W 005°51'3 0.1
2016-Feb-05 19:29N 54°37' W 005°54'0 0.1
2016-Feb-05 18:32N 54°37' W 005°54'0 0.0
2016-Feb-04 09:32N 54°37' W 005°54'0 0.0
2016-Feb-04 06:20N 54°37' W 005°54'0 0.0
2016-Feb-04 05:23N 54°37' W 005°54'1 1.6
2016-Feb-04 04:32N 54°38' W 005°52'6 6.6
2016-Feb-04 03:34N 54°42' W 005°44'1 1.0
2016-Feb-04 02:14N 54°41' W 005°42'0 0.0
2016-Feb-04 01:32N 54°41' W 005°42'0 0.0
2016-Feb-04 00:26N 54°41' W 005°42'0 0.0
2016-Feb-03 23:32N 54°41' W 005°42'0 0.0
2016-Feb-03 22:32N 54°41' W 005°42'0 0.0
2016-Feb-03 20:26N 54°41' W 005°42'0 0.0
2016-Feb-03 19:29N 54°41' W 005°42'0 0.0
2016-Feb-03 18:32N 54°41' W 005°42'0 0.0
2016-Feb-03 17:32N 54°41' W 005°42'0 0.5
2016-Feb-03 16:32N 54°41' W 005°41'7 6.7
2016-Feb-03 15:33N 54°44' W 005°31'8 8.3
2016-Feb-03 14:33N 54°37' W 005°23'9 9.3
2016-Feb-03 13:33N 54°27' W 005°19'10 9.9
2016-Feb-03 12:34N 54°18' W 005°22'1010.0
2016-Feb-03 11:33N 54°08' W 005°25'  
2016-Jan-30 15:33N 50°34' E 000°06'8 7.7
2016-Jan-30 14:33N 50°36' E 000°18'6 6.4
2016-Jan-30 13:33N 50°37' E 000°27'6 6.1
2016-Jan-30 12:33N 50°40' E 000°36'7 6.7
2016-Jan-30 11:33N 50°43' E 000°45'16 7.9
2016-Jan-30 09:33N 50°53' E 001°05'8 8.4
2016-Jan-30 08:33N 50°58' E 001°15'7 7.2
2016-Jan-30 07:33N 51°03' E 001°24'5 5.4
2016-Jan-30 06:33N 51°06' E 001°31'3 3.1
2016-Jan-30 05:33N 51°08' E 001°34'2 1.6
2016-Jan-30 04:33N 51°09' E 001°36'2 1.6
2016-Jan-30 03:33N 51°10' E 001°38'2 2.0
2016-Jan-30 02:34N 51°12' E 001°41'3 2.9
2016-Jan-30 01:33N 51°13' E 001°44'5 5.3
2016-Jan-30 00:33N 51°18' E 001°47'7 7.0
2016-Jan-29 23:34N 51°25' E 001°49'8 8.2
2016-Jan-29 22:33N 51°33' E 001°47'9 9.0
2016-Jan-29 21:33N 51°42' E 001°45'8 8.3
2016-Jan-29 20:33N 51°50' E 001°40'8 8.0
2016-Jan-29 19:33N 51°56' E 001°32'9 8.6
2016-Jan-29 18:33N 51°57' E 001°18'7 6.9
2016-Jan-29 17:33N 52°02' E 001°10'1 0.6
2016-Jan-29 16:32N 52°02' E 001°10'0 0.0
2016-Jan-29 15:32N 52°02' E 001°10'0 0.0
2016-Jan-29 14:32N 52°02' E 001°10'0 0.0
2016-Jan-29 13:14N 52°02' E 001°10'0 0.0
2016-Jan-29 11:23N 52°02' E 001°10'0 0.0
2016-Jan-29 10:26N 52°02' E 001°10'0 0.0
2016-Jan-29 09:32N 52°02' E 001°10'0 0.0
2016-Jan-29 08:23N 52°02' E 001°10'0 0.0
2016-Jan-29 07:32N 52°02' E 001°10'0 0.0
2016-Jan-29 06:32N 52°02' E 001°10'0 0.0
2016-Jan-29 05:32N 52°02' E 001°10'0 0.0
2016-Jan-29 04:29N 52°02' E 001°10'0 0.0
2016-Jan-29 03:32N 52°02' E 001°10'0 0.0
2016-Jan-29 02:29N 52°02' E 001°10'0 0.0
2016-Jan-29 01:32N 52°02' E 001°10'0 0.0
2016-Jan-29 00:26N 52°02' E 001°10'0 0.1
2016-Jan-28 23:32N 52°03' E 001°10'0 0.0
2016-Jan-28 22:26N 52°03' E 001°10'0 0.0
2016-Jan-28 21:32N 52°03' E 001°10'0 0.0
2016-Jan-28 18:14N 52°03' E 001°10'0 0.0
2016-Jan-28 17:23N 52°03' E 001°10'0 0.0
2016-Jan-28 14:20N 52°03' E 001°10'0 0.0
2016-Jan-28 13:34N 52°03' E 001°10'4 4.2
2016-Jan-28 12:33N 51°60' E 001°15'7 7.0
2016-Jan-28 11:33N 51°56' E 001°25'9 8.5
2016-Jan-28 10:33N 52°01' E 001°36'9 8.8
2016-Jan-28 09:33N 52°09' E 001°41'1211.5
2016-Jan-28 08:33N 52°20' E 001°46'1110.6
2016-Jan-28 07:33N 52°30' E 001°51'9 9.1
2016-Jan-28 06:33N 52°39' E 001°55'8 8.3
2016-Jan-28 05:33N 52°47' E 001°49'8 8.4
2016-Jan-28 04:34N 52°53' E 001°41'8 8.2
2016-Jan-28 03:33N 52°59' E 001°31'9 9.2
2016-Jan-28 02:33N 53°06' E 001°21'11 9.8
2016-Jan-28 01:29N 53°14' E 001°09'1010.2
2016-Jan-28 00:32N 53°21' E 000°58'  

Dump ship's entire track history